sensor_id;sensor_type;location;lat;lon;timestamp;temperature;humidity
25092;DHT22;13082;52.374;4.946;2023-04-03T00:00:38;6.90;99.90
25092;DHT22;13082;52.374;4.946;2023-04-03T00:03:04;6.90;99.90
25092;DHT22;13082;52.374;4.946;2023-04-03T00:05:29;7.00;99.90
25092;DHT22;13082;52.374;4.946;2023-04-03T00:07:55;6.90;99.90
25092;DHT22;13082;52.374;4.946;2023-04-03T00:10:21;6.90;99.90
25092;DHT22;13082;52.374;4.946;2023-04-03T00:12:46;6.90;99.90
25092;DHT22;13082;52.374;4.946;2023-04-03T00:15:12;6.90;99.90
25092;DHT22;13082;52.374;4.946;2023-04-03T00:17:38;6.80;99.90
25092;DHT22;13082;52.374;4.946;2023-04-03T00:20:04;6.80;99.90
25092;DHT22;13082;52.374;4.946;2023-04-03T00:22:31;6.80;99.90
25092;DHT22;13082;52.374;4.946;2023-04-03T00:24:56;6.70;99.90
25092;DHT22;13082;52.374;4.946;2023-04-03T00:27:22;6.70;99.90
25092;DHT22;13082;52.374;4.946;2023-04-03T00:29:48;6.70;99.90
25092;DHT22;13082;52.374;4.946;2023-04-03T00:32:13;6.70;99.90
25092;DHT22;13082;52.374;4.946;2023-04-03T00:34:39;6.70;99.90
25092;DHT22;13082;52.374;4.946;2023-04-03T00:37:05;6.70;99.90
25092;DHT22;13082;52.374;4.946;2023-04-03T00:39:31;6.70;99.90
25092;DHT22;13082;52.374;4.946;2023-04-03T00:41:57;6.70;99.90
25092;DHT22;13082;52.374;4.946;2023-04-03T00:47:12;6.60;99.90
25092;DHT22;13082;52.374;4.946;2023-04-03T00:49:38;6.70;99.90
25092;DHT22;13082;52.374;4.946;2023-04-03T00:52:11;6.60;99.90
25092;DHT22;13082;52.374;4.946;2023-04-03T00:54:39;6.70;99.90
25092;DHT22;13082;52.374;4.946;2023-04-03T00:57:06;6.60;99.90
25092;DHT22;13082;52.374;4.946;2023-04-03T00:59:35;6.60;99.90
25092;DHT22;13082;52.374;4.946;2023-04-03T01:02:04;6.50;99.90
25092;DHT22;13082;52.374;4.946;2023-04-03T01:04:34;6.50;99.90
25092;DHT22;13082;52.374;4.946;2023-04-03T01:07:04;6.50;99.90
25092;DHT22;13082;52.374;4.946;2023-04-03T01:09:31;6.50;99.90
25092;DHT22;13082;52.374;4.946;2023-04-03T01:14:46;6.50;99.90
25092;DHT22;13082;52.374;4.946;2023-04-03T01:17:32;6.50;99.90
25092;DHT22;13082;52.374;4.946;2023-04-03T01:25:26;6.40;99.90
25092;DHT22;13082;52.374;4.946;2023-04-03T01:27:52;6.40;99.90
25092;DHT22;13082;52.374;4.946;2023-04-03T01:30:19;6.40;99.90
25092;DHT22;13082;52.374;4.946;2023-04-03T01:32:45;6.40;99.90
25092;DHT22;13082;52.374;4.946;2023-04-03T01:35:11;6.30;99.90
25092;DHT22;13082;52.374;4.946;2023-04-03T01:37:37;6.30;99.90
25092;DHT22;13082;52.374;4.946;2023-04-03T01:40:04;6.30;99.90
25092;DHT22;13082;52.374;4.946;2023-04-03T01:42:31;6.30;99.90
25092;DHT22;13082;52.374;4.946;2023-04-03T01:44:56;6.30;99.90
25092;DHT22;13082;52.374;4.946;2023-04-03T01:47:22;6.30;99.90
25092;DHT22;13082;52.374;4.946;2023-04-03T01:49:48;6.20;99.90
25092;DHT22;13082;52.374;4.946;2023-04-03T01:52:13;6.20;99.90
25092;DHT22;13082;52.374;4.946;2023-04-03T01:54:39;6.20;99.90
25092;DHT22;13082;52.374;4.946;2023-04-03T01:57:05;6.10;99.90
25092;DHT22;13082;52.374;4.946;2023-04-03T01:59:30;6.10;99.90
25092;DHT22;13082;52.374;4.946;2023-04-03T02:01:56;6.10;99.90
25092;DHT22;13082;52.374;4.946;2023-04-03T02:04:22;6.10;99.90
25092;DHT22;13082;52.374;4.946;2023-04-03T02:06:48;6.10;99.90
25092;DHT22;13082;52.374;4.946;2023-04-03T02:09:13;6.10;99.90
25092;DHT22;13082;52.374;4.946;2023-04-03T02:11:39;6.10;99.90
25092;DHT22;13082;52.374;4.946;2023-04-03T02:14:05;6.10;99.90
25092;DHT22;13082;52.374;4.946;2023-04-03T02:16:31;6.10;99.90
25092;DHT22;13082;52.374;4.946;2023-04-03T02:18:56;6.10;99.90
25092;DHT22;13082;52.374;4.946;2023-04-03T02:21:22;6.10;99.90
25092;DHT22;13082;52.374;4.946;2023-04-03T02:23:48;6.10;99.90
25092;DHT22;13082;52.374;4.946;2023-04-03T02:26:16;6.00;99.90
25092;DHT22;13082;52.374;4.946;2023-04-03T02:28:42;6.10;99.90
25092;DHT22;13082;52.374;4.946;2023-04-03T02:31:08;6.10;99.90
25092;DHT22;13082;52.374;4.946;2023-04-03T02:33:35;6.10;99.90
25092;DHT22;13082;52.374;4.946;2023-04-03T02:36:04;6.10;99.90
25092;DHT22;13082;52.374;4.946;2023-04-03T02:38:31;6.10;99.90
25092;DHT22;13082;52.374;4.946;2023-04-03T02:41:05;6.10;99.90
25092;DHT22;13082;52.374;4.946;2023-04-03T02:43:31;6.10;99.90
25092;DHT22;13082;52.374;4.946;2023-04-03T02:45:56;6.00;99.90
25092;DHT22;13082;52.374;4.946;2023-04-03T02:48:23;6.00;99.90
25092;DHT22;13082;52.374;4.946;2023-04-03T02:50:49;5.90;99.90
25092;DHT22;13082;52.374;4.946;2023-04-03T02:53:15;5.90;99.90
25092;DHT22;13082;52.374;4.946;2023-04-03T02:55:41;5.90;99.90
25092;DHT22;13082;52.374;4.946;2023-04-03T02:58:07;5.90;99.90
25092;DHT22;13082;52.374;4.946;2023-04-03T03:00:33;5.90;99.90
25092;DHT22;13082;52.374;4.946;2023-04-03T03:02:59;5.90;99.90
25092;DHT22;13082;52.374;4.946;2023-04-03T03:05:25;5.80;99.90
25092;DHT22;13082;52.374;4.946;2023-04-03T03:07:51;5.80;99.90
25092;DHT22;13082;52.374;4.946;2023-04-03T03:10:17;5.80;99.90
25092;DHT22;13082;52.374;4.946;2023-04-03T03:12:42;5.80;99.90
25092;DHT22;13082;52.374;4.946;2023-04-03T03:15:08;5.80;99.90
25092;DHT22;13082;52.374;4.946;2023-04-03T03:17:34;5.80;99.90
25092;DHT22;13082;52.374;4.946;2023-04-03T03:20:02;5.70;99.90
25092;DHT22;13082;52.374;4.946;2023-04-03T03:22:27;5.70;99.90
25092;DHT22;13082;52.374;4.946;2023-04-03T03:24:53;5.70;99.90
25092;DHT22;13082;52.374;4.946;2023-04-03T03:27:19;5.80;99.90
25092;DHT22;13082;52.374;4.946;2023-04-03T03:29:45;5.80;99.90
25092;DHT22;13082;52.374;4.946;2023-04-03T03:32:10;5.80;99.90
25092;DHT22;13082;52.374;4.946;2023-04-03T03:34:36;5.70;99.90
25092;DHT22;13082;52.374;4.946;2023-04-03T03:37:01;5.70;99.90
25092;DHT22;13082;52.374;4.946;2023-04-03T03:39:27;5.70;99.90
25092;DHT22;13082;52.374;4.946;2023-04-03T03:41:53;5.70;99.90
25092;DHT22;13082;52.374;4.946;2023-04-03T03:44:19;5.70;99.90
25092;DHT22;13082;52.374;4.946;2023-04-03T03:46:45;5.80;99.90
25092;DHT22;13082;52.374;4.946;2023-04-03T03:49:11;5.80;99.90
25092;DHT22;13082;52.374;4.946;2023-04-03T03:51:37;5.70;99.90
25092;DHT22;13082;52.374;4.946;2023-04-03T03:54:03;5.70;99.90
25092;DHT22;13082;52.374;4.946;2023-04-03T03:56:29;5.70;99.90
25092;DHT22;13082;52.374;4.946;2023-04-03T03:58:55;5.60;99.90
25092;DHT22;13082;52.374;4.946;2023-04-03T04:01:22;5.60;99.90
25092;DHT22;13082;52.374;4.946;2023-04-03T04:03:48;5.60;99.90
25092;DHT22;13082;52.374;4.946;2023-04-03T04:06:14;5.60;99.90
25092;DHT22;13082;52.374;4.946;2023-04-03T04:08:40;5.60;99.90
25092;DHT22;13082;52.374;4.946;2023-04-03T04:11:06;5.60;99.90
25092;DHT22;13082;52.374;4.946;2023-04-03T04:13:31;5.60;99.90
25092;DHT22;13082;52.374;4.946;2023-04-03T04:15:57;5.60;99.90
25092;DHT22;13082;52.374;4.946;2023-04-03T04:18:23;5.50;99.90
25092;DHT22;13082;52.374;4.946;2023-04-03T04:20:49;5.50;99.90
25092;DHT22;13082;52.374;4.946;2023-04-03T04:23:16;5.50;99.90
25092;DHT22;13082;52.374;4.946;2023-04-03T04:25:44;5.60;99.90
25092;DHT22;13082;52.374;4.946;2023-04-03T04:28:10;5.50;99.90
25092;DHT22;13082;52.374;4.946;2023-04-03T04:30:36;5.50;99.90
25092;DHT22;13082;52.374;4.946;2023-04-03T04:33:02;5.50;99.90
25092;DHT22;13082;52.374;4.946;2023-04-03T04:35:27;5.50;99.90
25092;DHT22;13082;52.374;4.946;2023-04-03T04:37:53;5.40;99.90
25092;DHT22;13082;52.374;4.946;2023-04-03T04:40:19;5.40;99.90
25092;DHT22;13082;52.374;4.946;2023-04-03T04:42:44;5.50;99.90
25092;DHT22;13082;52.374;4.946;2023-04-03T04:45:10;5.40;99.90
25092;DHT22;13082;52.374;4.946;2023-04-03T04:47:36;5.40;99.90
25092;DHT22;13082;52.374;4.946;2023-04-03T04:50:02;5.40;99.90
25092;DHT22;13082;52.374;4.946;2023-04-03T04:52:27;5.40;99.90
25092;DHT22;13082;52.374;4.946;2023-04-03T04:54:53;5.40;99.90
25092;DHT22;13082;52.374;4.946;2023-04-03T04:57:18;5.30;99.90
25092;DHT22;13082;52.374;4.946;2023-04-03T04:59:44;5.30;99.90
25092;DHT22;13082;52.374;4.946;2023-04-03T05:02:10;5.30;99.90
25092;DHT22;13082;52.374;4.946;2023-04-03T05:04:35;5.30;99.90
25092;DHT22;13082;52.374;4.946;2023-04-03T05:07:01;5.30;99.90
25092;DHT22;13082;52.374;4.946;2023-04-03T05:09:26;5.20;99.90
25092;DHT22;13082;52.374;4.946;2023-04-03T05:11:52;5.30;99.90
25092;DHT22;13082;52.374;4.946;2023-04-03T05:14:18;5.20;99.90
25092;DHT22;13082;52.374;4.946;2023-04-03T05:16:44;5.20;99.90
25092;DHT22;13082;52.374;4.946;2023-04-03T05:19:09;5.20;99.90
25092;DHT22;13082;52.374;4.946;2023-04-03T05:21:35;5.20;99.90
25092;DHT22;13082;52.374;4.946;2023-04-03T05:24:01;5.30;99.90
25092;DHT22;13082;52.374;4.946;2023-04-03T05:26:29;5.30;99.90
25092;DHT22;13082;52.374;4.946;2023-04-03T05:28:55;5.20;99.90
25092;DHT22;13082;52.374;4.946;2023-04-03T05:31:21;5.20;99.90
25092;DHT22;13082;52.374;4.946;2023-04-03T05:33:47;5.30;99.90
25092;DHT22;13082;52.374;4.946;2023-04-03T05:36:13;5.30;99.90
25092;DHT22;13082;52.374;4.946;2023-04-03T05:38:39;5.30;99.90
25092;DHT22;13082;52.374;4.946;2023-04-03T05:41:05;5.30;99.90
25092;DHT22;13082;52.374;4.946;2023-04-03T05:43:31;5.30;99.90
25092;DHT22;13082;52.374;4.946;2023-04-03T05:45:56;5.30;99.90
25092;DHT22;13082;52.374;4.946;2023-04-03T05:48:22;5.40;99.90
25092;DHT22;13082;52.374;4.946;2023-04-03T05:50:48;5.40;99.90
25092;DHT22;13082;52.374;4.946;2023-04-03T05:53:21;5.30;99.90
25092;DHT22;13082;52.374;4.946;2023-04-03T05:55:46;5.30;99.90
25092;DHT22;13082;52.374;4.946;2023-04-03T05:58:12;5.40;99.90
25092;DHT22;13082;52.374;4.946;2023-04-03T06:00:38;5.30;99.90
25092;DHT22;13082;52.374;4.946;2023-04-03T06:03:04;5.30;99.90
25092;DHT22;13082;52.374;4.946;2023-04-03T06:05:30;5.30;99.90
25092;DHT22;13082;52.374;4.946;2023-04-03T06:07:55;5.30;99.90
25092;DHT22;13082;52.374;4.946;2023-04-03T06:10:22;5.30;99.90
25092;DHT22;13082;52.374;4.946;2023-04-03T06:12:48;5.30;99.90
25092;DHT22;13082;52.374;4.946;2023-04-03T06:15:13;5.30;99.90
25092;DHT22;13082;52.374;4.946;2023-04-03T06:17:40;5.40;99.90
25092;DHT22;13082;52.374;4.946;2023-04-03T06:20:06;5.40;99.90
25092;DHT22;13082;52.374;4.946;2023-04-03T06:22:31;5.50;99.90
25092;DHT22;13082;52.374;4.946;2023-04-03T06:24:57;5.50;99.90
25092;DHT22;13082;52.374;4.946;2023-04-03T06:27:23;5.60;99.90
25092;DHT22;13082;52.374;4.946;2023-04-03T06:29:49;5.60;99.90
25092;DHT22;13082;52.374;4.946;2023-04-03T06:32:15;5.60;99.90
25092;DHT22;13082;52.374;4.946;2023-04-03T06:34:41;5.60;99.90
25092;DHT22;13082;52.374;4.946;2023-04-03T06:37:14;5.50;99.90
25092;DHT22;13082;52.374;4.946;2023-04-03T06:39:40;5.50;99.90
25092;DHT22;13082;52.374;4.946;2023-04-03T06:42:07;5.60;99.90
25092;DHT22;13082;52.374;4.946;2023-04-03T06:44:32;5.60;99.90
25092;DHT22;13082;52.374;4.946;2023-04-03T06:47:00;5.60;99.90
25092;DHT22;13082;52.374;4.946;2023-04-03T06:49:25;5.70;99.90
25092;DHT22;13082;52.374;4.946;2023-04-03T06:51:51;5.70;99.90
25092;DHT22;13082;52.374;4.946;2023-04-03T06:54:17;5.70;99.90
25092;DHT22;13082;52.374;4.946;2023-04-03T06:56:43;5.80;99.90
25092;DHT22;13082;52.374;4.946;2023-04-03T06:59:10;5.80;99.90
25092;DHT22;13082;52.374;4.946;2023-04-03T07:01:38;5.80;99.90
25092;DHT22;13082;52.374;4.946;2023-04-03T07:04:03;5.90;99.90
25092;DHT22;13082;52.374;4.946;2023-04-03T07:06:29;5.90;99.90
25092;DHT22;13082;52.374;4.946;2023-04-03T07:08:56;5.90;99.90
25092;DHT22;13082;52.374;4.946;2023-04-03T07:11:22;6.00;99.90
25092;DHT22;13082;52.374;4.946;2023-04-03T07:13:48;5.90;99.90
25092;DHT22;13082;52.374;4.946;2023-04-03T07:16:14;6.00;99.90
25092;DHT22;13082;52.374;4.946;2023-04-03T07:18:39;6.00;99.90
25092;DHT22;13082;52.374;4.946;2023-04-03T07:21:08;6.10;99.90
25092;DHT22;13082;52.374;4.946;2023-04-03T07:23:33;6.10;99.90
25092;DHT22;13082;52.374;4.946;2023-04-03T07:25:59;6.00;99.90
25092;DHT22;13082;52.374;4.946;2023-04-03T07:28:25;6.00;99.90
25092;DHT22;13082;52.374;4.946;2023-04-03T07:30:53;6.00;99.90
25092;DHT22;13082;52.374;4.946;2023-04-03T07:33:21;6.10;99.90
25092;DHT22;13082;52.374;4.946;2023-04-03T07:35:47;6.10;99.90
25092;DHT22;13082;52.374;4.946;2023-04-03T07:38:13;6.10;99.90
25092;DHT22;13082;52.374;4.946;2023-04-03T07:40:39;6.20;99.90
25092;DHT22;13082;52.374;4.946;2023-04-03T07:43:06;6.30;99.90
25092;DHT22;13082;52.374;4.946;2023-04-03T07:45:34;6.30;99.90
25092;DHT22;13082;52.374;4.946;2023-04-03T07:48:00;6.30;99.90
25092;DHT22;13082;52.374;4.946;2023-04-03T07:50:26;6.40;99.90
25092;DHT22;13082;52.374;4.946;2023-04-03T07:52:52;6.40;99.90
25092;DHT22;13082;52.374;4.946;2023-04-03T07:55:20;6.50;99.90
25092;DHT22;13082;52.374;4.946;2023-04-03T07:57:45;6.50;99.90
25092;DHT22;13082;52.374;4.946;2023-04-03T08:00:12;6.60;99.90
25092;DHT22;13082;52.374;4.946;2023-04-03T08:02:38;6.60;99.90
25092;DHT22;13082;52.374;4.946;2023-04-03T08:05:04;6.70;99.90
25092;DHT22;13082;52.374;4.946;2023-04-03T08:07:29;6.70;99.90
25092;DHT22;13082;52.374;4.946;2023-04-03T08:09:55;6.80;99.90
25092;DHT22;13082;52.374;4.946;2023-04-03T08:12:21;6.90;99.90
25092;DHT22;13082;52.374;4.946;2023-04-03T08:14:47;7.00;99.90
25092;DHT22;13082;52.374;4.946;2023-04-03T08:17:12;7.00;99.90
25092;DHT22;13082;52.374;4.946;2023-04-03T08:19:39;7.10;99.90
25092;DHT22;13082;52.374;4.946;2023-04-03T08:22:05;7.20;99.90
25092;DHT22;13082;52.374;4.946;2023-04-03T08:24:31;7.20;99.90
25092;DHT22;13082;52.374;4.946;2023-04-03T08:26:57;7.30;99.90
25092;DHT22;13082;52.374;4.946;2023-04-03T08:29:24;7.30;99.90
25092;DHT22;13082;52.374;4.946;2023-04-03T08:31:50;7.40;99.90
25092;DHT22;13082;52.374;4.946;2023-04-03T08:34:16;7.40;99.90
25092;DHT22;13082;52.374;4.946;2023-04-03T08:36:43;7.50;99.90
25092;DHT22;13082;52.374;4.946;2023-04-03T08:39:09;7.60;99.90
25092;DHT22;13082;52.374;4.946;2023-04-03T08:41:36;7.60;99.90
25092;DHT22;13082;52.374;4.946;2023-04-03T08:49:35;7.80;99.90
25092;DHT22;13082;52.374;4.946;2023-04-03T08:52:08;7.90;99.90
25092;DHT22;13082;52.374;4.946;2023-04-03T08:54:53;8.10;99.90
25092;DHT22;13082;52.374;4.946;2023-04-03T08:57:38;8.10;99.90
25092;DHT22;13082;52.374;4.946;2023-04-03T09:02:46;8.20;99.90
25092;DHT22;13082;52.374;4.946;2023-04-03T09:05:18;8.30;99.90
25092;DHT22;13082;52.374;4.946;2023-04-03T09:07:59;8.40;99.90
25092;DHT22;13082;52.374;4.946;2023-04-03T09:10:28;8.50;99.90
25092;DHT22;13082;52.374;4.946;2023-04-03T09:13:08;8.50;99.90
25092;DHT22;13082;52.374;4.946;2023-04-03T09:15:35;8.60;99.90
25092;DHT22;13082;52.374;4.946;2023-04-03T09:21:06;8.70;99.90
25092;DHT22;13082;52.374;4.946;2023-04-03T09:23:52;8.70;99.90
25092;DHT22;13082;52.374;4.946;2023-04-03T09:26:29;8.70;99.90
25092;DHT22;13082;52.374;4.946;2023-04-03T09:29:01;8.80;99.90
25092;DHT22;13082;52.374;4.946;2023-04-03T09:31:31;8.80;99.90
25092;DHT22;13082;52.374;4.946;2023-04-03T09:34:04;8.80;99.90
25092;DHT22;13082;52.374;4.946;2023-04-03T09:36:44;8.80;99.90
25092;DHT22;13082;52.374;4.946;2023-04-03T09:39:21;8.90;99.90
25092;DHT22;13082;52.374;4.946;2023-04-03T09:42:05;8.90;99.90
25092;DHT22;13082;52.374;4.946;2023-04-03T09:44:38;9.00;99.90
25092;DHT22;13082;52.374;4.946;2023-04-03T09:47:25;9.00;99.90
25092;DHT22;13082;52.374;4.946;2023-04-03T09:52:44;9.00;99.90
25092;DHT22;13082;52.374;4.946;2023-04-03T09:57:45;9.00;99.90
25092;DHT22;13082;52.374;4.946;2023-04-03T10:00:30;8.90;99.90
25092;DHT22;13082;52.374;4.946;2023-04-03T10:02:58;9.00;99.90
25092;DHT22;13082;52.374;4.946;2023-04-03T10:10:45;9.30;99.90
25092;DHT22;13082;52.374;4.946;2023-04-03T10:13:17;9.30;99.90
25092;DHT22;13082;52.374;4.946;2023-04-03T10:15:55;9.20;99.90
25092;DHT22;13082;52.374;4.946;2023-04-03T10:20:48;9.30;99.90
25092;DHT22;13082;52.374;4.946;2023-04-03T10:23:26;9.30;99.90
25092;DHT22;13082;52.374;4.946;2023-04-03T10:26:08;9.40;99.90
25092;DHT22;13082;52.374;4.946;2023-04-03T10:28:54;9.50;99.90
25092;DHT22;13082;52.374;4.946;2023-04-03T10:31:31;9.60;99.90
25092;DHT22;13082;52.374;4.946;2023-04-03T10:34:05;9.70;99.90
25092;DHT22;13082;52.374;4.946;2023-04-03T10:41:59;10.00;99.90
25092;DHT22;13082;52.374;4.946;2023-04-03T10:45:24;10.20;99.90
25092;DHT22;13082;52.374;4.946;2023-04-03T10:47:54;10.20;99.90
25092;DHT22;13082;52.374;4.946;2023-04-03T10:58:52;10.40;99.90
25092;DHT22;13082;52.374;4.946;2023-04-03T11:01:26;10.40;99.90
25092;DHT22;13082;52.374;4.946;2023-04-03T11:03:57;10.40;99.90
25092;DHT22;13082;52.374;4.946;2023-04-03T11:06:25;10.60;99.90
25092;DHT22;13082;52.374;4.946;2023-04-03T11:09:03;10.60;99.90
25092;DHT22;13082;52.374;4.946;2023-04-03T11:11:35;10.70;99.90
25092;DHT22;13082;52.374;4.946;2023-04-03T11:14:22;10.80;99.90
25092;DHT22;13082;52.374;4.946;2023-04-03T11:17:15;11.00;99.90
25092;DHT22;13082;52.374;4.946;2023-04-03T11:24:54;11.10;99.90
25092;DHT22;13082;52.374;4.946;2023-04-03T11:27:23;11.10;99.90
25092;DHT22;13082;52.374;4.946;2023-04-03T11:29:50;11.00;99.90
25092;DHT22;13082;52.374;4.946;2023-04-03T11:35:12;10.90;99.90
25092;DHT22;13082;52.374;4.946;2023-04-03T11:42:42;11.10;99.90
25092;DHT22;13082;52.374;4.946;2023-04-03T11:47:56;11.30;99.90
25092;DHT22;13082;52.374;4.946;2023-04-03T12:08:47;11.40;99.90
25092;DHT22;13082;52.374;4.946;2023-04-03T12:26:44;11.50;99.90
25092;DHT22;13082;52.374;4.946;2023-04-03T12:35:03;11.60;99.90
25092;DHT22;13082;52.374;4.946;2023-04-03T12:40:07;11.70;99.90
25092;DHT22;13082;52.374;4.946;2023-04-03T12:45:43;11.70;99.90
25092;DHT22;13082;52.374;4.946;2023-04-03T12:48:20;11.70;99.90
25092;DHT22;13082;52.374;4.946;2023-04-03T12:50:49;11.70;99.90
25092;DHT22;13082;52.374;4.946;2023-04-03T12:53:35;11.80;99.90
25092;DHT22;13082;52.374;4.946;2023-04-03T12:58:44;11.80;99.90
25092;DHT22;13082;52.374;4.946;2023-04-03T13:01:13;11.80;99.90
25092;DHT22;13082;52.374;4.946;2023-04-03T13:03:43;11.80;99.90
25092;DHT22;13082;52.374;4.946;2023-04-03T13:06:38;11.70;99.90
25092;DHT22;13082;52.374;4.946;2023-04-03T13:09:14;11.70;99.90
25092;DHT22;13082;52.374;4.946;2023-04-03T13:11:44;11.70;99.90
25092;DHT22;13082;52.374;4.946;2023-04-03T13:14:24;11.80;99.90
25092;DHT22;13082;52.374;4.946;2023-04-03T13:16:58;11.80;99.90
25092;DHT22;13082;52.374;4.946;2023-04-03T13:19:27;11.80;99.90
25092;DHT22;13082;52.374;4.946;2023-04-03T13:22:21;11.70;99.90
25092;DHT22;13082;52.374;4.946;2023-04-03T13:24:46;11.60;99.90
25092;DHT22;13082;52.374;4.946;2023-04-03T13:27:13;11.50;99.90
25092;DHT22;13082;52.374;4.946;2023-04-03T13:29:39;11.60;99.90
25092;DHT22;13082;52.374;4.946;2023-04-03T13:32:06;11.70;99.90
25092;DHT22;13082;52.374;4.946;2023-04-03T13:34:38;11.80;99.90
25092;DHT22;13082;52.374;4.946;2023-04-03T13:37:06;11.90;99.90
25092;DHT22;13082;52.374;4.946;2023-04-03T13:39:38;11.90;99.90
25092;DHT22;13082;52.374;4.946;2023-04-03T13:42:28;11.90;99.90
25092;DHT22;13082;52.374;4.946;2023-04-03T13:45:23;11.90;99.90
25092;DHT22;13082;52.374;4.946;2023-04-03T13:47:50;11.80;99.90
25092;DHT22;13082;52.374;4.946;2023-04-03T13:52:48;11.90;99.90
25092;DHT22;13082;52.374;4.946;2023-04-03T13:55:27;12.00;99.90
25092;DHT22;13082;52.374;4.946;2023-04-03T13:57:55;12.00;99.90
25092;DHT22;13082;52.374;4.946;2023-04-03T14:00:49;12.10;99.90
25092;DHT22;13082;52.374;4.946;2023-04-03T14:03:23;12.10;99.90
25092;DHT22;13082;52.374;4.946;2023-04-03T14:05:49;12.00;99.90
25092;DHT22;13082;52.374;4.946;2023-04-03T14:08:15;12.00;99.90
25092;DHT22;13082;52.374;4.946;2023-04-03T14:10:42;12.00;99.90
25092;DHT22;13082;52.374;4.946;2023-04-03T14:13:13;12.00;99.90
25092;DHT22;13082;52.374;4.946;2023-04-03T14:15:39;12.00;99.90
25092;DHT22;13082;52.374;4.946;2023-04-03T14:18:05;12.00;99.90
25092;DHT22;13082;52.374;4.946;2023-04-03T14:20:30;12.00;99.90
25092;DHT22;13082;52.374;4.946;2023-04-03T14:22:56;12.00;99.90
25092;DHT22;13082;52.374;4.946;2023-04-03T14:25:22;11.90;99.90
25092;DHT22;13082;52.374;4.946;2023-04-03T14:27:51;11.90;99.90
25092;DHT22;13082;52.374;4.946;2023-04-03T14:30:23;11.90;99.90
25092;DHT22;13082;52.374;4.946;2023-04-03T14:32:49;11.80;99.90
25092;DHT22;13082;52.374;4.946;2023-04-03T14:35:16;11.80;99.90
25092;DHT22;13082;52.374;4.946;2023-04-03T14:37:42;11.90;99.90
25092;DHT22;13082;52.374;4.946;2023-04-03T14:40:14;11.80;99.90
25092;DHT22;13082;52.374;4.946;2023-04-03T14:42:40;11.90;99.90
25092;DHT22;13082;52.374;4.946;2023-04-03T14:45:09;11.90;99.90
25092;DHT22;13082;52.374;4.946;2023-04-03T14:47:46;11.90;99.90
25092;DHT22;13082;52.374;4.946;2023-04-03T14:50:21;11.90;99.90
25092;DHT22;13082;52.374;4.946;2023-04-03T14:52:48;11.80;99.90
25092;DHT22;13082;52.374;4.946;2023-04-03T14:55:16;11.70;99.90
25092;DHT22;13082;52.374;4.946;2023-04-03T14:57:42;11.70;99.90
25092;DHT22;13082;52.374;4.946;2023-04-03T15:00:13;11.70;99.90
25092;DHT22;13082;52.374;4.946;2023-04-03T15:02:40;11.70;99.90
25092;DHT22;13082;52.374;4.946;2023-04-03T15:05:08;11.80;99.90
25092;DHT22;13082;52.374;4.946;2023-04-03T15:07:41;11.80;99.90
25092;DHT22;13082;52.374;4.946;2023-04-03T15:10:28;11.80;99.90
25092;DHT22;13082;52.374;4.946;2023-04-03T15:12:53;11.70;99.90
25092;DHT22;13082;52.374;4.946;2023-04-03T15:15:20;11.60;99.90
25092;DHT22;13082;52.374;4.946;2023-04-03T15:17:52;11.60;99.90
25092;DHT22;13082;52.374;4.946;2023-04-03T15:20:24;11.60;99.90
25092;DHT22;13082;52.374;4.946;2023-04-03T15:22:51;11.70;99.90
25092;DHT22;13082;52.374;4.946;2023-04-03T15:25:17;11.70;99.90
25092;DHT22;13082;52.374;4.946;2023-04-03T15:27:43;11.70;99.90
25092;DHT22;13082;52.374;4.946;2023-04-03T15:30:15;11.60;99.90
25092;DHT22;13082;52.374;4.946;2023-04-03T15:32:41;11.60;99.90
25092;DHT22;13082;52.374;4.946;2023-04-03T15:35:07;11.50;99.90
25092;DHT22;13082;52.374;4.946;2023-04-03T15:37:32;11.40;99.90
25092;DHT22;13082;52.374;4.946;2023-04-03T15:39:58;11.50;99.90
25092;DHT22;13082;52.374;4.946;2023-04-03T15:42:24;11.40;99.90
25092;DHT22;13082;52.374;4.946;2023-04-03T15:44:49;11.40;99.90
25092;DHT22;13082;52.374;4.946;2023-04-03T15:47:15;11.40;99.90
25092;DHT22;13082;52.374;4.946;2023-04-03T15:49:41;11.30;99.90
25092;DHT22;13082;52.374;4.946;2023-04-03T15:52:06;11.30;99.90
25092;DHT22;13082;52.374;4.946;2023-04-03T15:54:32;11.30;99.90
25092;DHT22;13082;52.374;4.946;2023-04-03T15:56:58;11.30;99.90
25092;DHT22;13082;52.374;4.946;2023-04-03T15:59:24;11.20;99.90
25092;DHT22;13082;52.374;4.946;2023-04-03T16:01:50;11.10;99.90
25092;DHT22;13082;52.374;4.946;2023-04-03T16:04:16;11.10;99.90
25092;DHT22;13082;52.374;4.946;2023-04-03T16:06:43;11.10;99.90
25092;DHT22;13082;52.374;4.946;2023-04-03T16:09:09;11.10;99.90
25092;DHT22;13082;52.374;4.946;2023-04-03T16:11:35;11.10;99.90
25092;DHT22;13082;52.374;4.946;2023-04-03T16:14:02;11.10;99.90
25092;DHT22;13082;52.374;4.946;2023-04-03T16:16:28;11.00;99.90
25092;DHT22;13082;52.374;4.946;2023-04-03T16:18:55;10.90;99.90
25092;DHT22;13082;52.374;4.946;2023-04-03T16:21:21;10.90;99.90
25092;DHT22;13082;52.374;4.946;2023-04-03T16:23:48;10.80;99.90
25092;DHT22;13082;52.374;4.946;2023-04-03T16:26:13;10.80;99.90
25092;DHT22;13082;52.374;4.946;2023-04-03T16:28:39;10.80;99.90
25092;DHT22;13082;52.374;4.946;2023-04-03T16:31:06;10.70;99.90
25092;DHT22;13082;52.374;4.946;2023-04-03T16:33:32;10.70;99.90
25092;DHT22;13082;52.374;4.946;2023-04-03T16:35:58;10.70;99.90
25092;DHT22;13082;52.374;4.946;2023-04-03T16:38:24;10.60;99.90
25092;DHT22;13082;52.374;4.946;2023-04-03T16:40:50;10.60;99.90
25092;DHT22;13082;52.374;4.946;2023-04-03T16:43:16;10.50;99.90
25092;DHT22;13082;52.374;4.946;2023-04-03T16:45:42;10.40;99.90
25092;DHT22;13082;52.374;4.946;2023-04-03T16:48:07;10.30;99.90
25092;DHT22;13082;52.374;4.946;2023-04-03T16:50:33;10.30;99.90
25092;DHT22;13082;52.374;4.946;2023-04-03T16:52:59;10.30;99.90
25092;DHT22;13082;52.374;4.946;2023-04-03T16:55:24;10.20;99.90
25092;DHT22;13082;52.374;4.946;2023-04-03T16:57:50;10.20;99.90
25092;DHT22;13082;52.374;4.946;2023-04-03T17:00:16;10.10;99.90
25092;DHT22;13082;52.374;4.946;2023-04-03T17:02:42;10.10;99.90
25092;DHT22;13082;52.374;4.946;2023-04-03T17:05:08;10.00;99.90
25092;DHT22;13082;52.374;4.946;2023-04-03T17:07:34;10.00;99.90
25092;DHT22;13082;52.374;4.946;2023-04-03T17:10:00;10.00;99.90
25092;DHT22;13082;52.374;4.946;2023-04-03T17:12:25;10.00;99.90
25092;DHT22;13082;52.374;4.946;2023-04-03T17:14:51;9.90;99.90
25092;DHT22;13082;52.374;4.946;2023-04-03T17:17:21;9.80;99.90
25092;DHT22;13082;52.374;4.946;2023-04-03T17:19:47;9.80;99.90
25092;DHT22;13082;52.374;4.946;2023-04-03T17:22:13;9.80;99.90
25092;DHT22;13082;52.374;4.946;2023-04-03T17:24:40;9.80;99.90
25092;DHT22;13082;52.374;4.946;2023-04-03T17:27:06;9.70;99.90
25092;DHT22;13082;52.374;4.946;2023-04-03T17:29:31;9.70;99.90
25092;DHT22;13082;52.374;4.946;2023-04-03T17:31:57;9.70;99.90
25092;DHT22;13082;52.374;4.946;2023-04-03T17:34:23;9.60;99.90
25092;DHT22;13082;52.374;4.946;2023-04-03T17:36:49;9.60;99.90
25092;DHT22;13082;52.374;4.946;2023-04-03T17:39:15;9.60;99.90
25092;DHT22;13082;52.374;4.946;2023-04-03T17:41:40;9.50;99.90